Time;durP1;ratioP1;P1;durP2;ratioP2;P2;SDS_P1;SDS_P2;PMS_P1;PMS_P2;Temp;Humidity;BMP_temperature;BMP_pressure;BME280_temperature;BME280_humidity;BME280_pressure;Samples;Min_cycle;Max_cycle;Signal;HPM_P1;HPM_P2
2023/08/10 00:00:32;;;;;;;;;;;;;;;;;;6190928;28;19992;-64
2023/08/10 00:03:32;;;;;;;;;;;;;;;;;;6188987;28;19914;-63
2023/08/10 00:06:32;;;;;;;;;;;;;;;;;;6189455;28;19909;-63
2023/08/10 00:09:32;;;;;;;;;;;;;;;;;;6194581;28;19917;-66
2023/08/10 00:12:32;;;;;;;;;;;;;;;;;;6192016;28;19918;-64
2023/08/10 00:15:33;;;;;;;;;;;;;;;;;;6196941;28;20346;-65
2023/08/10 00:18:33;;;;;;;;;;;;;;;;;;6194029;28;19918;-64
2023/08/10 00:21:33;;;;;;;;;;;;;;;;;;6194839;28;19924;-64
2023/08/10 00:24:33;;;;;;;;;;;;;;;;;;6194597;28;19925;-64
2023/08/10 00:27:33;;;;;;;;;;;;;;;;;;6193131;28;19925;-64
2023/08/10 00:30:34;;;;;;;;;;;;;;;;;;6195494;28;19953;-64
2023/08/10 00:33:34;;;;;;;;;;;;;;;;;;6195052;28;19936;-64
2023/08/10 00:36:34;;;;;;;;;;;;;;;;;;6193325;28;19936;-64
2023/08/10 00:39:34;;;;;;;;;;;;;;;;;;6195962;28;19913;-64
2023/08/10 00:42:34;;;;;;;;;;;;;;;;;;6194291;28;19924;-64
2023/08/10 00:45:34;;;;;;;;;;;;;;;;;;6193167;28;20414;-65
2023/08/10 00:48:34;;;;;;;;;;;;;;;;;;6195947;28;19980;-65
2023/08/10 00:51:35;;;;;;;;;;;;;;;;;;6196837;28;19909;-64
2023/08/10 00:54:35;;;;;;;;;;;;;;;;;;6194180;28;19918;-65
2023/08/10 00:57:35;;;;;;;;;;;;;;;;;;6193097;28;19918;-64
2023/08/10 01:00:35;;;;;;;;;;;;;;;;;;6193743;28;20365;-64
2023/08/10 01:03:35;;;;;;;;;;;;;;;;;;6186704;28;19982;-64
2023/08/10 01:06:35;;;;;;;;;;;;;;;;;;6192978;28;19932;-64
2023/08/10 01:09:35;;;;;;;;;;;;;;;;;;6193881;28;19909;-64
2023/08/10 01:12:35;;;;;;;;;;;;;;;;;;6188621;28;20455;-64
2023/08/10 01:15:36;;;;;;;;;;;;;;;;;;6193148;28;20378;-64
2023/08/10 01:18:36;;;;;;;;;;;;;;;;;;6192229;28;19918;-64
2023/08/10 01:21:37;;;;;;;;;;;;;;;;;;6188760;28;20370;-64
2023/08/10 01:24:37;;;;;;;;;;;;;;;;;;6193796;28;19922;-64
2023/08/10 01:27:37;;;;;;;;;;;;;;;;;;6193384;28;19933;-64
2023/08/10 01:30:37;;;;;;;;;;;;;;;;;;6191325;28;20084;-64
2023/08/10 01:33:38;;;;;;;;;;;;;;;;;;6191302;28;20046;-63
2023/08/10 01:36:38;;;;;;;;;;;;;;;;;;6194869;28;19924;-63
2023/08/10 01:39:38;;;;;;;;;;;;;;;;;;6189346;28;19929;-62
2023/08/10 01:42:38;;;;;;;;;;;;;;;;;;6189423;28;19914;-63
2023/08/10 01:45:38;;;;;;;;;;;;;;;;;;6196223;28;19921;-63
2023/08/10 01:48:39;;;;;;;;;;;;;;;;;;6194326;28;19914;-63
2023/08/10 01:51:39;;;;;;;;;;;;;;;;;;6192418;28;19976;-63
2023/08/10 01:54:39;;;;;;;;;;;;;;;;;;6191413;28;19924;-63
2023/08/10 01:57:39;;;;;;;;;;;;;;;;;;6191183;28;19921;-63
2023/08/10 02:00:39;;;;;;;;;;;;;;;;;;6191881;28;19982;-63
2023/08/10 02:03:39;;;;;;;;;;;;;;;;;;6190722;28;20570;-64
2023/08/10 02:06:40;;;;;;;;;;;;;;;;;;6192490;28;19910;-64
2023/08/10 02:09:40;;;;;;;;;;;;;;;;;;6195832;28;19999;-63
2023/08/10 02:12:40;;;;;;;;;;;;;;;;;;6196954;28;19909;-64
2023/08/10 02:15:42;;;;;;;;;;;;;;;;;;6190369;28;20000;-64
2023/08/10 02:18:42;;;;;;;;;;;;;;;;;;6188478;28;20016;-64
2023/08/10 02:21:42;;;;;;;;;;;;;;;;;;6192114;28;19913;-66
2023/08/10 02:24:42;;;;;;;;;;;;;;;;;;6192308;28;20000;-64
2023/08/10 02:27:43;;;;;;;;;;;;;;;;;;6190728;28;19914;-64
2023/08/10 02:30:43;;;;;;;;;;;;;;;;;;6191157;28;19913;-64
2023/08/10 02:33:43;;;;;;;;;;;;;;;;;;6184246;28;19967;-64
2023/08/10 02:36:43;;;;;;;;;;;;;;;;;;6193458;28;19948;-64
2023/08/10 02:39:43;;;;;;;;;;;;;;;;;;6193866;28;20016;-64
2023/08/10 02:42:43;;;;;;;;;;;;;;;;;;6195639;28;19920;-64
2023/08/10 02:45:43;;;;;;;;;;;;;;;;;;6192158;28;19910;-64
2023/08/10 02:48:44;;;;;;;;;;;;;;;;;;6191461;28;19929;-64
2023/08/10 02:51:44;;;;;;;;;;;;;;;;;;6189138;28;20396;-64
2023/08/10 02:54:44;;;;;;;;;;;;;;;;;;6189325;28;20380;-64
2023/08/10 02:57:44;;;;;;;;;;;;;;;;;;6192462;28;19920;-64
2023/08/10 03:00:44;;;;;;;;;;;;;;;;;;6190938;28;19948;-64
2023/08/10 03:03:45;;;;;;;;;;;;;;;;;;6196913;28;20434;-64
2023/08/10 03:06:45;;;;;;;;;;;;;;;;;;6195886;28;19910;-64
2023/08/10 03:09:45;;;;;;;;;;;;;;;;;;6192363;28;19917;-65
2023/08/10 03:12:45;;;;;;;;;;;;;;;;;;6191788;28;19922;-64
2023/08/10 03:15:45;;;;;;;;;;;;;;;;;;6190933;28;20341;-64
2023/08/10 03:18:45;;;;;;;;;;;;;;;;;;6193389;28;20314;-64
2023/08/10 03:21:46;;;;;;;;;;;;;;;;;;6197883;28;19910;-64
2023/08/10 03:24:46;;;;;;;;;;;;;;;;;;6192264;28;19929;-64
2023/08/10 03:27:46;;;;;;;;;;;;;;;;;;6195689;28;19944;-64
2023/08/10 03:30:46;;;;;;;;;;;;;;;;;;6193827;28;20344;-64
2023/08/10 03:33:46;;;;;;;;;;;;;;;;;;6194452;28;19913;-64
2023/08/10 03:36:46;;;;;;;;;;;;;;;;;;6187898;28;22402;-64
2023/08/10 03:39:47;;;;;;;;;;;;;;;;;;6193073;28;19965;-64
2023/08/10 03:42:47;;;;;;;;;;;;;;;;;;6194705;28;19940;-64
2023/08/10 03:45:47;;;;;;;;;;;;;;;;;;6192676;28;20044;-64
2023/08/10 03:48:47;;;;;;;;;;;;;;;;;;6191410;28;20346;-64
2023/08/10 03:51:47;;;;;;;;;;;;;;;;;;6194209;28;19917;-64
2023/08/10 03:54:47;;;;;;;;;;;;;;;;;;6193002;28;20011;-64
2023/08/10 03:57:48;;;;;;;;;;;;;;;;;;6194526;28;20028;-64
2023/08/10 04:00:48;;;;;;;;;;;;;;;;;;6194855;28;19960;-64
2023/08/10 04:03:48;;;;;;;;;;;;;;;;;;6192708;28;19914;-64
2023/08/10 04:06:48;;;;;;;;;;;;;;;;;;6193276;28;19910;-65
2023/08/10 04:09:48;;;;;;;;;;;;;;;;;;6195741;28;19940;-63
2023/08/10 04:12:49;;;;;;;;;;;;;;;;;;6195438;28;20054;-64
2023/08/10 04:15:49;;;;;;;;;;;;;;;;;;6194631;28;19913;-64
2023/08/10 04:18:49;;;;;;;;;;;;;;;;;;6196619;28;19914;-63
2023/08/10 04:21:49;;;;;;;;;;;;;;;;;;6196627;28;19913;-63
2023/08/10 04:24:49;;;;;;;;;;;;;;;;;;6191668;28;20435;-64
2023/08/10 04:27:49;;;;;;;;;;;;;;;;;;6195264;28;21694;-63
2023/08/10 04:30:50;;;;;;;;;;;;;;;;;;6193860;28;19913;-63
2023/08/10 04:33:50;;;;;;;;;;;;;;;;;;6194264;28;19987;-64
2023/08/10 04:36:51;;;;;;;;;;;;;;;;;;6194836;28;20283;-64
2023/08/10 04:39:51;;;;;;;;;;;;;;;;;;6195444;28;19960;-65
2023/08/10 04:42:52;;;;;;;;;;;;;;;;;;6192530;28;20366;-65
2023/08/10 04:45:52;;;;;;;;;;;;;;;;;;6192093;28;19965;-65
2023/08/10 04:48:52;;;;;;;;;;;;;;;;;;6193999;28;20008;-65
2023/08/10 04:51:52;;;;;;;;;;;;;;;;;;6196500;28;19948;-65
2023/08/10 04:54:52;;;;;;;;;;;;;;;;;;6193438;28;20049;-64
2023/08/10 04:57:52;;;;;;;;;;;;;;;;;;6194837;28;20004;-65
2023/08/10 05:00:52;;;;;;;;;;;;;;;;;;6192379;28;19913;-64
2023/08/10 05:03:54;;;;;;;;;;;;;;;;;;6186916;28;19924;-65
2023/08/10 05:06:54;;;;;;;;;;;;;;;;;;6190702;28;21325;-65
2023/08/10 05:09:55;;;;;;;;;;;;;;;;;;6190191;28;19917;-65
2023/08/10 05:12:55;;;;;;;;;;;;;;;;;;6194101;28;19905;-64
2023/08/10 05:15:55;;;;;;;;;;;;;;;;;;6182521;28;19929;-64
2023/08/10 05:18:56;;;;;;;;;;;;;;;;;;6188558;28;20012;-64
2023/08/10 05:21:56;;;;;;;;;;;;;;;;;;6193519;28;19921;-65
2023/08/10 05:24:56;;;;;;;;;;;;;;;;;;6193301;28;19905;-65
2023/08/10 05:27:56;;;;;;;;;;;;;;;;;;6187250;28;20437;-65
2023/08/10 05:30:56;;;;;;;;;;;;;;;;;;6187101;28;19988;-65
2023/08/10 05:33:56;;;;;;;;;;;;;;;;;;6188835;28;19960;-64
2023/08/10 05:36:56;;;;;;;;;;;;;;;;;;6186335;28;20008;-65
2023/08/10 05:39:56;;;;;;;;;;;;;;;;;;6179119;28;19937;-65
2023/08/10 05:42:56;;;;;;;;;;;;;;;;;;6176939;28;19918;-67
2023/08/10 05:45:57;;;;;;;;;;;;;;;;;;6183637;28;19924;-65
2023/08/10 05:48:57;;;;;;;;;;;;;;;;;;6178689;28;19921;-65
2023/08/10 05:51:57;;;;;;;;;;;;;;;;;;6180905;28;20274;-66
2023/08/10 05:54:57;;;;;;;;;;;;;;;;;;6173027;28;19918;-65
2023/08/10 05:57:57;;;;;;;;;;;;;;;;;;6179599;28;20004;-65
2023/08/10 06:00:57;;;;;;;;;;;;;;;;;;6184589;28;19922;-65
2023/08/10 06:03:57;;;;;;;;;;;;;;;;;;6190149;28;19918;-63
2023/08/10 06:06:57;;;;;;;;;;;;;;;;;;6178710;28;19933;-63
2023/08/10 06:09:58;;;;;;;;;;;;;;;;;;6185008;28;19956;-62
2023/08/10 06:12:58;;;;;;;;;;;;;;;;;;6193783;28;19909;-62
2023/08/10 06:15:58;;;;;;;;;;;;;;;;;;6185050;28;20781;-63
2023/08/10 06:18:58;;;;;;;;;;;;;;;;;;6181535;28;19917;-63
2023/08/10 06:21:58;;;;;;;;;;;;;;;;;;6184921;28;19924;-63
2023/08/10 06:24:58;;;;;;;;;;;;;;;;;;6184850;28;19928;-64
2023/08/10 06:27:58;;;;;;;;;;;;;;;;;;6194940;28;20384;-64
2023/08/10 06:30:58;;;;;;;;;;;;;;;;;;6188724;28;19932;-64
2023/08/10 06:33:59;;;;;;;;;;;;;;;;;;6189041;28;19940;-64
2023/08/10 06:36:59;;;;;;;;;;;;;;;;;;6188709;28;19996;-64
2023/08/10 06:39:59;;;;;;;;;;;;;;;;;;6188307;28;20406;-64
2023/08/10 06:42:59;;;;;;;;;;;;;;;;;;6185881;28;20009;-64
2023/08/10 06:46:00;;;;;;;;;;;;;;;;;;6179628;28;19929;-63
2023/08/10 06:49:00;;;;;;;;;;;;;;;;;;6191125;28;19918;-63
2023/08/10 06:52:00;;;;;;;;;;;;;;;;;;6179990;28;19940;-63
2023/08/10 06:55:01;;;;;;;;;;;;;;;;;;6188094;28;20016;-63
2023/08/10 06:58:02;;;;;;;;;;;;;;;;;;6181744;28;19925;-63
2023/08/10 07:01:02;;;;;;;;;;;;;;;;;;6185326;28;19917;-63
2023/08/10 07:04:02;;;;;;;;;;;;;;;;;;6181282;28;20083;-64
2023/08/10 07:07:03;;;;;;;;;;;;;;;;;;6182147;28;19983;-65
2023/08/10 07:10:05;;;;;;;;;;;;;;;;;;6184678;28;19998;-65
2023/08/10 07:13:05;;;;;;;;;;;;;;;;;;6179785;28;20474;-65
2023/08/10 07:16:05;;;;;;;;;;;;;;;;;;6190489;28;20009;-65
2023/08/10 07:19:05;;;;;;;;;;;;;;;;;;6194434;28;20329;-66
2023/08/10 07:22:06;;;;;;;;;;;;;;;;;;6197931;28;19929;-65
2023/08/10 07:25:06;;;;;;;;;;;;;;;;;;6198214;28;19909;-65
2023/08/10 07:28:06;;;;;;;;;;;;;;;;;;6198535;28;19964;-65
2023/08/10 07:31:06;;;;;;;;;;;;;;;;;;6195562;28;19960;-66
2023/08/10 07:34:09;;;;;;;;;;;;;;;;;;6191462;28;19980;-65
2023/08/10 07:37:10;;;;;;;;;;;;;;;;;;6199770;28;19918;-65
2023/08/10 07:40:11;;;;;;;;;;;;;;;;;;6198483;28;20412;-65
2023/08/10 07:43:11;;;;;;;;;;;;;;;;;;6196161;28;19909;-66
2023/08/10 07:46:11;;;;;;;;;;;;;;;;;;6188517;28;19910;-65
2023/08/10 07:49:11;;;;;;;;;;;;;;;;;;6193466;28;19960;-65
2023/08/10 07:52:12;;;;;;;;;;;;;;;;;;6196768;28;20359;-65
2023/08/10 07:55:13;;;;;;;;;;;;;;;;;;6210753;28;19952;-65
2023/08/10 07:58:15;;;;;;;;;;;;;;;;;;6196921;28;19920;-66
2023/08/10 08:01:15;;;;;;;;;;;;;;;;;;6196235;28;20005;-65
2023/08/10 08:04:15;;;;;;;;;;;;;;;;;;6193381;28;20300;-64
2023/08/10 08:07:15;;;;;;;;;;;;;;;;;;6196732;28;19909;-64
2023/08/10 08:10:16;;;;;;;;;;;;;;;;;;6195525;28;19909;-66
2023/08/10 08:13:16;;;;;;;;;;;;;;;;;;6196290;28;20005;-63
2023/08/10 08:16:16;;;;;;;;;;;;;;;;;;6195703;28;20016;-64
2023/08/10 08:19:17;;;;;;;;;;;;;;;;;;6195597;28;20248;-64
2023/08/10 08:22:18;;;;;;;;;;;;;;;;;;6193373;28;19914;-64
2023/08/10 08:25:18;;;;;;;;;;;;;;;;;;6191429;28;19957;-64
2023/08/10 08:28:18;;;;;;;;;;;;;;;;;;6197590;28;19922;-65
2023/08/10 08:31:18;;;;;;;;;;;;;;;;;;6188758;28;19917;-65
2023/08/10 08:34:18;;;;;;;;;;;;;;;;;;6194496;28;20353;-65
2023/08/10 08:37:18;;;;;;;;;;;;;;;;;;6189186;28;19925;-64
2023/08/10 08:40:18;;;;;;;;;;;;;;;;;;6190714;28;19921;-64
2023/08/10 08:43:18;;;;;;;;;;;;;;;;;;6195281;28;19955;-67
2023/08/10 08:46:19;;;;;;;;;;;;;;;;;;6196802;28;20381;-64
2023/08/10 08:49:19;;;;;;;;;;;;;;;;;;6189572;28;19906;-65
2023/08/10 08:52:19;;;;;;;;;;;;;;;;;;6194210;28;20398;-65
2023/08/10 08:55:19;;;;;;;;;;;;;;;;;;6191339;28;20396;-66
2023/08/10 08:58:19;;;;;;;;;;;;;;;;;;6196564;28;19967;-66
2023/08/10 09:01:19;;;;;;;;;;;;;;;;;;6193971;28;19959;-65
2023/08/10 09:04:19;;;;;;;;;;;;;;;;;;6191930;28;19917;-66
2023/08/10 09:07:19;;;;;;;;;;;;;;;;;;6194863;28;20286;-65
2023/08/10 09:10:20;;;;;;;;;;;;;;;;;;6194953;28;20426;-65
2023/08/10 09:13:21;;;;;;;;;;;;;;;;;;6196192;28;19910;-66
2023/08/10 09:16:21;;;;;;;;;;;;;;;;;;6191286;28;19940;-66
2023/08/10 09:19:21;;;;;;;;;;;;;;;;;;6186673;28;19917;-66
2023/08/10 09:22:21;;;;;;;;;;;;;;;;;;6194356;28;19906;-66
2023/08/10 09:25:21;;;;;;;;;;;;;;;;;;6189157;28;19914;-67
2023/08/10 09:28:21;;;;;;;;;;;;;;;;;;6191509;28;20359;-67
2023/08/10 09:31:21;;;;;;;;;;;;;;;;;;6189669;28;19944;-67
2023/08/10 09:34:22;;;;;;;;;;;;;;;;;;6186855;28;20358;-66
2023/08/10 09:37:22;;;;;;;;;;;;;;;;;;6188267;28;19957;-67
2023/08/10 09:40:22;;;;;;;;;;;;;;;;;;6188661;28;20369;-65
2023/08/10 09:43:22;;;;;;;;;;;;;;;;;;6191502;28;19914;-66
2023/08/10 09:46:23;;;;;;;;;;;;;;;;;;6192055;28;19941;-66
2023/08/10 09:49:23;;;;;;;;;;;;;;;;;;6191619;28;19910;-65
2023/08/10 09:52:23;;;;;;;;;;;;;;;;;;6204177;28;19924;-67
2023/08/10 09:55:23;;;;;;;;;;;;;;;;;;6182839;28;19914;-66
2023/08/10 09:58:23;;;;;;;;;;;;;;;;;;6192844;28;19940;-67
2023/08/10 10:01:24;;;;;;;;;;;;;;;;;;6181891;28;20562;-67
2023/08/10 10:04:24;;;;;;;;;;;;;;;;;;6186586;28;19910;-68
2023/08/10 10:07:25;;;;;;;;;;;;;;;;;;6191319;28;19964;-67
2023/08/10 10:10:25;;;;;;;;;;;;;;;;;;6189036;28;20640;-64
2023/08/10 10:13:25;;;;;;;;;;;;;;;;;;6193507;28;20659;-65
2023/08/10 10:16:26;;;;;;;;;;;;;;;;;;6193155;28;19917;-64
2023/08/10 10:19:26;;;;;;;;;;;;;;;;;;6191224;28;19917;-67
2023/08/10 10:22:26;;;;;;;;;;;;;;;;;;6193754;28;20286;-67
2023/08/10 10:25:26;;;;;;;;;;;;;;;;;;6193612;28;19916;-65
2023/08/10 10:28:26;;;;;;;;;;;;;;;;;;6189827;28;19921;-66
2023/08/10 10:31:27;;;;;;;;;;;;;;;;;;6193001;28;19929;-66
2023/08/10 10:34:27;;;;;;;;;;;;;;;;;;6192217;28;19936;-66
2023/08/10 10:37:27;;;;;;;;;;;;;;;;;;6193912;28;19914;-65
2023/08/10 10:40:27;;;;;;;;;;;;;;;;;;6193141;28;19954;-65
2023/08/10 10:43:27;;;;;;;;;;;;;;;;;;6194117;28;19913;-65
2023/08/10 10:46:28;;;;;;;;;;;;;;;;;;6190757;28;19967;-65
2023/08/10 10:49:28;;;;;;;;;;;;;;;;;;6192000;28;20447;-65
2023/08/10 10:52:28;;;;;;;;;;;;;;;;;;6190817;28;20382;-65
2023/08/10 10:55:28;;;;;;;;;;;;;;;;;;6190468;28;19914;-64
2023/08/10 10:58:31;;;;;;;;;;;;;;;;;;6191562;28;19992;-65
2023/08/10 11:01:31;;;;;;;;;;;;;;;;;;6191004;28;19914;-65
2023/08/10 11:04:32;;;;;;;;;;;;;;;;;;6191903;28;20310;-66
2023/08/10 11:07:32;;;;;;;;;;;;;;;;;;6193601;28;19913;-65
2023/08/10 11:10:32;;;;;;;;;;;;;;;;;;6192515;28;19906;-66
2023/08/10 11:13:32;;;;;;;;;;;;;;;;;;6191843;28;19906;-66
2023/08/10 11:16:32;;;;;;;;;;;;;;;;;;6191247;28;20005;-66
2023/08/10 11:19:33;;;;;;;;;;;;;;;;;;6189797;28;20279;-66
2023/08/10 11:22:33;;;;;;;;;;;;;;;;;;6188798;28;19914;-66
2023/08/10 11:25:33;;;;;;;;;;;;;;;;;;6197062;28;20068;-67
2023/08/10 11:28:33;;;;;;;;;;;;;;;;;;6194755;28;19996;-67
2023/08/10 11:31:33;;;;;;;;;;;;;;;;;;6196712;28;20346;-67
2023/08/10 11:34:33;;;;;;;;;;;;;;;;;;6200683;28;19914;-66
2023/08/10 11:37:33;;;;;;;;;;;;;;;;;;6197341;28;19961;-66
2023/08/10 11:40:34;;;;;;;;;;;;;;;;;;6196209;28;20273;-67
2023/08/10 11:43:34;;;;;;;;;;;;;;;;;;6197068;28;20508;-66
2023/08/10 11:46:34;;;;;;;;;;;;;;;;;;6194448;28;20353;-66
2023/08/10 11:49:35;;;;;;;;;;;;;;;;;;6195248;28;19917;-65
2023/08/10 11:52:36;;;;;;;;;;;;;;;;;;6196864;28;19917;-65
2023/08/10 11:55:36;;;;;;;;;;;;;;;;;;6195941;28;19985;-65
2023/08/10 11:58:37;;;;;;;;;;;;;;;;;;6194346;28;20020;-65
2023/08/10 12:01:37;;;;;;;;;;;;;;;;;;6195947;28;19917;-66
2023/08/10 12:04:37;;;;;;;;;;;;;;;;;;6194817;28;19910;-65
2023/08/10 12:07:37;;;;;;;;;;;;;;;;;;6194948;28;20318;-65
2023/08/10 12:10:37;;;;;;;;;;;;;;;;;;6195681;28;20173;-66
2023/08/10 12:13:37;;;;;;;;;;;;;;;;;;6196132;28;20298;-66
2023/08/10 12:16:37;;;;;;;;;;;;;;;;;;6195355;28;19913;-66
2023/08/10 12:19:37;;;;;;;;;;;;;;;;;;6193040;28;20277;-66
2023/08/10 12:22:38;;;;;;;;;;;;;;;;;;6195643;28;19909;-67
2023/08/10 12:25:38;;;;;;;;;;;;;;;;;;6195972;28;19945;-67
2023/08/10 12:28:38;;;;;;;;;;;;;;;;;;6195968;28;20017;-67
2023/08/10 12:31:38;;;;;;;;;;;;;;;;;;6195711;28;19909;-67
2023/08/10 12:34:38;;;;;;;;;;;;;;;;;;6193954;28;19950;-66
2023/08/10 12:37:38;;;;;;;;;;;;;;;;;;6187419;28;19968;-66
2023/08/10 12:40:38;;;;;;;;;;;;;;;;;;6194643;28;20004;-67
2023/08/10 12:43:38;;;;;;;;;;;;;;;;;;6195817;28;19933;-67
2023/08/10 12:46:38;;;;;;;;;;;;;;;;;;6195196;28;19910;-67
2023/08/10 12:49:39;;;;;;;;;;;;;;;;;;6194033;28;19984;-66
2023/08/10 12:52:39;;;;;;;;;;;;;;;;;;6195112;28;20417;-67
2023/08/10 12:55:39;;;;;;;;;;;;;;;;;;6192890;28;19913;-66
2023/08/10 12:58:40;;;;;;;;;;;;;;;;;;6194773;28;19921;-67
2023/08/10 13:01:41;;;;;;;;;;;;;;;;;;6194744;28;19906;-65
2023/08/10 13:04:41;;;;;;;;;;;;;;;;;;6193819;28;19949;-66
2023/08/10 13:07:41;;;;;;;;;;;;;;;;;;6195010;28;19917;-66
2023/08/10 13:10:41;;;;;;;;;;;;;;;;;;6194063;28;20341;-67
2023/08/10 13:13:41;;;;;;;;;;;;;;;;;;6194876;28;19906;-67
2023/08/10 13:16:41;;;;;;;;;;;;;;;;;;6192669;28;19924;-66
2023/08/10 13:19:41;;;;;;;;;;;;;;;;;;6192031;28;20048;-65
2023/08/10 13:22:44;;;;;;;;;;;;;;;;;;6194563;28;19917;-65
2023/08/10 13:25:44;;;;;;;;;;;;;;;;;;6192132;28;19906;-66
2023/08/10 13:28:44;;;;;;;;;;;;;;;;;;5847859;28;10000433;-67
2023/08/10 13:31:44;;;;;;;;;;;;;;;;;;6194160;28;19929;-66
2023/08/10 13:34:44;;;;;;;;;;;;;;;;;;6193306;28;19906;-67
2023/08/10 13:37:44;;;;;;;;;;;;;;;;;;6192095;28;20274;-66
2023/08/10 13:40:44;;;;;;;;;;;;;;;;;;6193120;28;19906;-65
2023/08/10 13:43:45;;;;;;;;;;;;;;;;;;6193568;28;19909;-65
2023/08/10 13:46:46;;;;;;;;;;;;;;;;;;6191498;28;20011;-65
2023/08/10 13:49:46;;;;;;;;;;;;;;;;;;6193277;28;20239;-66
2023/08/10 13:52:46;;;;;;;;;;;;;;;;;;6192062;28;20079;-65
2023/08/10 13:55:46;;;;;;;;;;;;;;;;;;6182167;28;19960;-66
2023/08/10 13:58:46;;;;;;;;;;;;;;;;;;6168070;28;19918;-64
2023/08/10 14:01:46;;;;;;;;;;;;;;;;;;6169108;28;19906;-65
2023/08/10 14:04:46;;;;;;;;;;;;;;;;;;6166154;28;19910;-66
2023/08/10 14:07:47;;;;;;;;;;;;;;;;;;6184393;28;19913;-66
2023/08/10 14:10:47;;;;;;;;;;;;;;;;;;6193101;28;20511;-66
2023/08/10 14:13:47;;;;;;;;;;;;;;;;;;6193828;28;20396;-67
2023/08/10 14:16:47;;;;;;;;;;;;;;;;;;6178595;28;20346;-65
2023/08/10 14:19:47;;;;;;;;;;;;;;;;;;6168700;28;19932;-65
2023/08/10 14:22:47;;;;;;;;;;;;;;;;;;6167534;28;20016;-67
2023/08/10 14:25:47;;;;;;;;;;;;;;;;;;6191525;28;19910;-66
2023/08/10 14:28:48;;;;;;;;;;;;;;;;;;6176624;28;19910;-66
2023/08/10 14:31:48;;;;;;;;;;;;;;;;;;6169324;28;19914;-66
2023/08/10 14:34:50;;;;;;;;;;;;;;;;;;6167862;28;19921;-66
2023/08/10 14:37:50;;;;;;;;;;;;;;;;;;6167680;28;19943;-66
2023/08/10 14:40:50;;;;;;;;;;;;;;;;;;6175159;28;20328;-66
2023/08/10 14:43:50;;;;;;;;;;;;;;;;;;6193010;28;19953;-65
2023/08/10 14:46:50;;;;;;;;;;;;;;;;;;6192611;28;19926;-66
2023/08/10 14:49:50;;;;;;;;;;;;;;;;;;6149778;28;19910;-66
2023/08/10 14:52:50;;;;;;;;;;;;;;;;;;6154499;28;20258;-65
2023/08/10 14:55:50;;;;;;;;;;;;;;;;;;6186265;28;19910;-65
2023/08/10 14:58:51;;;;;;;;;;;;;;;;;;6198167;28;19921;-66
2023/08/10 15:01:51;;;;;;;;;;;;;;;;;;6197443;28;19913;-66
2023/08/10 15:04:51;;;;;;;;;;;;;;;;;;6196582;28;19906;-66
2023/08/10 15:07:51;;;;;;;;;;;;;;;;;;6197795;28;19960;-65
2023/08/10 15:10:51;;;;;;;;;;;;;;;;;;6196642;28;19937;-66
2023/08/10 15:13:51;;;;;;;;;;;;;;;;;;6195220;28;19921;-65
2023/08/10 15:16:52;;;;;;;;;;;;;;;;;;6197718;28;20389;-65
2023/08/10 15:19:52;;;;;;;;;;;;;;;;;;6194067;28;19910;-66
2023/08/10 15:22:52;;;;;;;;;;;;;;;;;;6197017;28;19914;-66
2023/08/10 15:25:52;;;;;;;;;;;;;;;;;;6195712;28;19913;-66
2023/08/10 15:28:52;;;;;;;;;;;;;;;;;;6197012;28;20238;-66
2023/08/10 15:31:52;;;;;;;;;;;;;;;;;;6196864;28;19983;-66
2023/08/10 15:34:52;;;;;;;;;;;;;;;;;;6195842;28;19945;-66
2023/08/10 15:37:52;;;;;;;;;;;;;;;;;;6196405;28;19925;-65
2023/08/10 15:40:54;;;;;;;;;;;;;;;;;;6196061;28;19906;-66
2023/08/10 15:43:55;;;;;;;;;;;;;;;;;;6196962;28;20004;-66
2023/08/10 15:46:55;;;;;;;;;;;;;;;;;;6197020;28;19909;-66
2023/08/10 15:49:55;;;;;;;;;;;;;;;;;;6196522;28;19905;-66
2023/08/10 15:52:55;;;;;;;;;;;;;;;;;;6196813;28;19922;-66
2023/08/10 15:55:55;;;;;;;;;;;;;;;;;;6196221;28;19906;-66
2023/08/10 15:58:55;;;;;;;;;;;;;;;;;;6194738;28;20009;-67
2023/08/10 16:01:57;;;;;;;;;;;;;;;;;;6196832;28;20002;-67
2023/08/10 16:04:57;;;;;;;;;;;;;;;;;;6193884;28;19945;-67
2023/08/10 16:07:58;;;;;;;;;;;;;;;;;;6197247;28;19916;-67
2023/08/10 16:10:58;;;;;;;;;;;;;;;;;;6195848;28;19910;-67
2023/08/10 16:13:58;;;;;;;;;;;;;;;;;;6194395;28;20574;-66
2023/08/10 16:16:58;;;;;;;;;;;;;;;;;;6196141;28;19918;-65
2023/08/10 16:19:58;;;;;;;;;;;;;;;;;;6194717;28;19913;-65
2023/08/10 16:22:58;;;;;;;;;;;;;;;;;;6196844;28;20411;-65
2023/08/10 16:25:59;;;;;;;;;;;;;;;;;;6195139;28;19910;-65
2023/08/10 16:28:59;;;;;;;;;;;;;;;;;;6193833;28;20349;-65
2023/08/10 16:31:59;;;;;;;;;;;;;;;;;;6195625;28;19906;-66
2023/08/10 16:34:59;;;;;;;;;;;;;;;;;;6189690;28;19929;-68
2023/08/10 16:37:59;;;;;;;;;;;;;;;;;;6184600;28;19922;-66
2023/08/10 16:40:59;;;;;;;;;;;;;;;;;;6197970;28;19918;-64
2023/08/10 16:43:59;;;;;;;;;;;;;;;;;;6185817;28;20026;-64
2023/08/10 16:46:59;;;;;;;;;;;;;;;;;;6767761;23;19999;-91
2023/08/10 16:49:59;;;;;;;;;;;;;;;;;;5506427;28;10000747;-93
2023/08/10 16:53:02;;;;;;;;;;;;;;;;;;6180491;28;19914;-95
2023/08/10 16:56:03;;;;;;;;;;;;;;;;;;6201239;28;19909;-93
2023/08/10 16:59:03;;;;;;;;;;;;;;;;;;6195713;28;19921;-90
2023/08/10 17:02:04;;;;;;;;;;;;;;;;;;6192798;28;19925;-94
2023/08/10 17:05:04;;;;;;;;;;;;;;;;;;6196927;28;19910;-91
2023/08/10 17:08:04;;;;;;;;;;;;;;;;;;6205356;28;19981;-93
2023/08/10 17:11:04;;;;;;;;;;;;;;;;;;6198828;28;19925;-92
2023/08/10 17:14:04;;;;;;;;;;;;;;;;;;6195042;28;19983;-93
2023/08/10 17:17:05;;;;;;;;;;;;;;;;;;6190168;28;19976;-95
2023/08/10 17:20:05;;;;;;;;;;;;;;;;;;6199738;28;19921;-91
2023/08/10 17:23:05;;;;;;;;;;;;;;;;;;6185004;28;20334;-95
2023/08/10 17:26:08;;;;;;;;;;;;;;;;;;6188552;28;19938;-96
2023/08/10 17:29:08;;;;;;;;;;;;;;;;;;6199030;28;19914;-93
2023/08/10 17:32:08;;;;;;;;;;;;;;;;;;6212414;23;20534;-70
2023/08/10 17:35:08;;;;;;;;;;;;;;;;;;6182287;28;19918;-70
2023/08/10 17:38:09;;;;;;;;;;;;;;;;;;6191332;28;19940;-69
2023/08/10 17:41:09;;;;;;;;;;;;;;;;;;6192638;28;20363;-70
2023/08/10 17:44:09;;;;;;;;;;;;;;;;;;6182566;28;19924;-71
2023/08/10 17:47:09;;;;;;;;;;;;;;;;;;6179037;28;19914;-71
2023/08/10 17:50:10;;;;;;;;;;;;;;;;;;6179909;28;19922;-71
2023/08/10 17:53:10;;;;;;;;;;;;;;;;;;6181778;28;20016;-70
2023/08/10 17:56:13;;;;;;;;;;;;;;;;;;6171659;28;19913;-70
2023/08/10 17:59:13;;;;;;;;;;;;;;;;;;6175275;28;20387;-69
2023/08/10 18:02:13;;;;;;;;;;;;;;;;;;6180854;28;19913;-69
2023/08/10 18:05:13;;;;;;;;;;;;;;;;;;6183097;28;19913;-68
2023/08/10 18:08:13;;;;;;;;;;;;;;;;;;6177150;28;20008;-68
2023/08/10 18:11:15;;;;;;;;;;;;;;;;;;6175288;28;20036;-69
2023/08/10 18:14:15;;;;;;;;;;;;;;;;;;6176821;28;19984;-70
2023/08/10 18:17:15;;;;;;;;;;;;;;;;;;6174693;28;19922;-69
2023/08/10 18:20:15;;;;;;;;;;;;;;;;;;6178074;28;19956;-69
2023/08/10 18:23:18;;;;;;;;;;;;;;;;;;6176752;28;19924;-70
2023/08/10 18:26:18;;;;;;;;;;;;;;;;;;6173560;28;20463;-68
2023/08/10 18:29:19;;;;;;;;;;;;;;;;;;6176455;28;19917;-70
2023/08/10 18:32:19;;;;;;;;;;;;;;;;;;6179690;28;19930;-68
2023/08/10 18:35:19;;;;;;;;;;;;;;;;;;6190188;28;19965;-68
2023/08/10 18:38:19;;;;;;;;;;;;;;;;;;6188854;28;20442;-69
2023/08/10 18:41:19;;;;;;;;;;;;;;;;;;6185640;28;20072;-68
2023/08/10 18:44:22;;;;;;;;;;;;;;;;;;6184019;28;19924;-68
2023/08/10 18:47:22;;;;;;;;;;;;;;;;;;6181047;28;20442;-69
2023/08/10 18:50:22;;;;;;;;;;;;;;;;;;6180652;28;19925;-67
2023/08/10 18:53:23;;;;;;;;;;;;;;;;;;6186360;28;19949;-69
2023/08/10 18:56:23;;;;;;;;;;;;;;;;;;6183927;28;19913;-68
2023/08/10 18:59:23;;;;;;;;;;;;;;;;;;6192122;28;19976;-68
2023/08/10 19:02:23;;;;;;;;;;;;;;;;;;6192816;28;19917;-68
2023/08/10 19:05:29;;;;;;;;;;;;;;;;;;6193410;28;19999;-69
2023/08/10 19:08:29;;;;;;;;;;;;;;;;;;6193140;28;20016;-69
2023/08/10 19:11:29;;;;;;;;;;;;;;;;;;6196575;28;20955;-69
2023/08/10 19:14:30;;;;;;;;;;;;;;;;;;6184642;28;19917;-68
2023/08/10 19:17:30;;;;;;;;;;;;;;;;;;5492005;28;10000799;-68
2023/08/10 19:20:31;;;;;;;;;;;;;;;;;;6187768;28;19921;-67
2023/08/10 19:23:31;;;;;;;;;;;;;;;;;;6190689;28;19967;-67
2023/08/10 19:26:31;;;;;;;;;;;;;;;;;;6188539;28;19914;-69
2023/08/10 19:29:34;;;;;;;;;;;;;;;;;;6189240;28;19920;-68
2023/08/10 19:32:34;;;;;;;;;;;;;;;;;;6192533;28;19933;-68
2023/08/10 19:35:34;;;;;;;;;;;;;;;;;;6176314;28;19913;-68
2023/08/10 19:38:34;;;;;;;;;;;;;;;;;;6185803;28;19940;-68
2023/08/10 19:41:34;;;;;;;;;;;;;;;;;;6183902;28;19988;-69
2023/08/10 19:44:35;;;;;;;;;;;;;;;;;;6178881;28;19923;-68
2023/08/10 19:47:35;;;;;;;;;;;;;;;;;;6180058;28;20000;-68
2023/08/10 19:50:35;;;;;;;;;;;;;;;;;;6179628;28;20455;-62
2023/08/10 19:53:35;;;;;;;;;;;;;;;;;;6183914;28;19938;-62
2023/08/10 19:56:35;;;;;;;;;;;;;;;;;;6181250;28;20350;-62
2023/08/10 19:59:35;;;;;;;;;;;;;;;;;;6184869;28;19920;-62
2023/08/10 20:02:36;;;;;;;;;;;;;;;;;;6183526;28;19924;-62
2023/08/10 20:05:36;;;;;;;;;;;;;;;;;;6180729;28;19914;-62
2023/08/10 20:08:36;;;;;;;;;;;;;;;;;;6183955;28;19920;-63
2023/08/10 20:11:36;;;;;;;;;;;;;;;;;;6184208;28;19914;-61
2023/08/10 20:14:36;;;;;;;;;;;;;;;;;;6180819;28;19924;-62
2023/08/10 20:17:39;;;;;;;;;;;;;;;;;;6181253;28;19917;-61
2023/08/10 20:20:40;;;;;;;;;;;;;;;;;;6180984;28;19980;-61
2023/08/10 20:23:40;;;;;;;;;;;;;;;;;;6188183;28;20283;-62
2023/08/10 20:26:42;;;;;;;;;;;;;;;;;;6179680;28;19918;-62
2023/08/10 20:29:42;;;;;;;;;;;;;;;;;;6183937;28;21104;-62